Time;durP1;ratioP1;P1;durP2;ratioP2;P2;SDS_P1;SDS_P2;PMS_P1;PMS_P2;Temp;Humidity;BMP_temperature;BMP_pressure;BME280_temperature;BME280_humidity;BME280_pressure;Samples;Min_cycle;Max_cycle;Signal;HPM_P1;HPM_P2
2023/03/05 00:01:38;;;;;;;;;32.00;30.00;;;;;9.65;51.12;101871.09;5117823;27;45034;-66
2023/03/05 00:04:06;;;;;;;;;21.50;21.50;;;;;9.65;51.46;101874.69;5111689;27;45204;-61
2023/03/05 00:06:32;;;;;;;;;28.00;25.25;;;;;9.65;51.10;101868.44;5111946;27;45064;-62
2023/03/05 00:08:58;;;;;;;;;27.25;24.25;;;;;9.64;51.25;101870.19;5112246;27;45199;-62
2023/03/05 00:11:28;;;;;;;;;31.50;24.25;;;;;9.61;51.60;101862.03;5112317;27;44995;-63
2023/03/05 00:13:56;;;;;;;;;22.00;21.75;;;;;9.64;51.48;101861.28;5113176;27;45748;-62
2023/03/05 00:16:25;;;;;;;;;21.25;18.25;;;;;9.65;52.56;101860.41;5116679;27;45016;-61
2023/03/05 00:18:51;;;;;;;;;24.75;22.00;;;;;9.67;52.36;101858.72;5107947;27;45076;-63
2023/03/05 00:21:23;;;;;;;;;24.25;18.75;;;;;9.59;52.57;101839.72;5112547;27;45073;-61
2023/03/05 00:23:49;;;;;;;;;38.25;27.50;;;;;9.65;52.98;101866.69;5113698;27;45725;-61
2023/03/05 00:26:16;;;;;;;;;22.25;17.25;;;;;9.63;52.19;101865.69;5115892;27;45166;-62
2023/03/05 00:28:41;;;;;;;;;19.25;14.00;;;;;9.64;53.12;101858.63;5112185;27;45338;-63
2023/03/05 00:31:07;;;;;;;;;25.75;15.00;;;;;9.64;52.91;101855.94;5116329;27;44997;-63
2023/03/05 00:33:33;;;;;;;;;21.00;17.50;;;;;9.51;52.61;101839.31;5111637;27;45913;-61
2023/03/05 00:36:01;;;;;;;;;20.25;17.00;;;;;9.60;53.07;101862.88;5124999;27;45013;-61
2023/03/05 00:38:26;;;;;;;;;18.50;17.00;;;;;9.54;53.03;101855.50;5121701;27;45034;-62
2023/03/05 00:40:51;;;;;;;;;17.00;14.25;;;;;9.58;53.28;101859.22;5115611;27;45194;-61
2023/03/05 00:43:17;;;;;;;;;16.00;14.50;;;;;9.60;53.19;101862.88;5111360;27;53890;-61
2023/03/05 00:45:42;;;;;;;;;17.00;17.00;;;;;9.58;53.43;101859.22;5114019;27;45102;-65
2023/03/05 00:48:08;;;;;;;;;16.50;16.50;;;;;9.54;54.12;101859.91;5094357;27;45706;-62
2023/03/05 00:50:33;;;;;;;;;21.00;16.00;;;;;9.47;54.62;101850.72;5116212;27;45283;-62
2023/03/05 00:53:00;;;;;;;;;9.25;7.25;;;;;9.43;54.67;101837.13;5111195;27;48420;-62
2023/03/05 00:55:25;;;;;;;;;22.25;18.75;;;;;9.45;54.54;101857.69;5115016;27;45115;-62
2023/03/05 00:57:51;;;;;;;;;16.00;14.50;;;;;9.39;54.76;101849.41;5127694;27;45385;-63
2023/03/05 01:00:16;;;;;;;;;17.75;15.00;;;;;9.36;55.19;101846.59;5120193;27;45251;-62
2023/03/05 01:02:42;;;;;;;;;18.25;15.25;;;;;9.37;54.82;101852.00;5113852;27;45241;-62
2023/03/05 01:05:11;;;;;;;;;23.50;20.00;;;;;9.41;55.03;101845.97;5119072;27;45039;-62
2023/03/05 01:07:36;;;;;;;;;15.00;15.00;;;;;9.41;54.78;101835.31;5122127;27;45145;-64
2023/03/05 01:10:02;;;;;;;;;15.25;13.25;;;;;9.41;54.53;101831.72;5115749;27;45206;-61
2023/03/05 01:12:28;;;;;;;;;20.75;18.00;;;;;9.47;54.25;101837.38;5122396;27;45774;-61
2023/03/05 01:14:53;;;;;;;;;12.25;12.25;;;;;9.46;54.38;101835.53;5122287;27;45186;-62
2023/03/05 01:17:18;;;;;;;;;22.25;15.25;;;;;9.41;54.94;101829.06;5116477;27;45536;-61
2023/03/05 01:19:44;;;;;;;;;30.75;23.50;;;;;9.45;55.35;101832.78;5125702;27;45166;-61
2023/03/05 01:22:09;;;;;;;;;22.50;18.75;;;;;9.46;55.12;101834.63;5115929;27;45703;-60
2023/03/05 01:24:34;;;;;;;;;25.75;21.50;;;;;9.47;54.86;101839.09;5117683;27;44992;-61
2023/03/05 01:27:00;;;;;;;;;16.00;14.50;;;;;9.42;55.14;101825.56;5115150;27;45076;-61
2023/03/05 01:29:26;;;;;;;;;18.50;18.50;;;;;9.43;55.58;101830.03;5114809;27;45042;-61
2023/03/05 01:31:51;;;;;;;;;20.25;18.75;;;;;9.44;55.59;101823.88;5103354;27;45799;-59
2023/03/05 01:34:17;;;;;;;;;21.25;17.50;;;;;9.40;55.48;101817.50;5119464;27;45286;-61
2023/03/05 01:36:42;;;;;;;;;17.50;15.75;;;;;9.43;55.05;101807.81;5115638;27;45221;-60
2023/03/05 01:39:07;;;;;;;;;14.50;14.50;;;;;9.47;55.38;101804.44;5129383;27;45083;-63
2023/03/05 01:41:33;;;;;;;;;23.75;19.00;;;;;9.45;55.27;101798.13;5114571;27;45476;-62
2023/03/05 01:43:59;;;;;;;;;20.25;15.00;;;;;9.44;55.79;101794.53;5114571;27;45130;-64
2023/03/05 01:46:26;;;;;;;;;18.75;16.50;;;;;9.39;56.24;101783.66;5117449;27;45161;-63
2023/03/05 01:49:15;;;;;;;;;25.25;18.00;;;;;9.41;56.51;101789.97;5113722;27;44955;-64
2023/03/05 01:51:48;;;;;;;;;22.00;16.25;;;;;9.40;56.33;101789.88;5104431;27;45290;-62
2023/03/05 01:54:18;;;;;;;;;16.25;14.75;;;;;9.38;56.52;101792.47;5114366;27;45068;-62
2023/03/05 01:56:45;;;;;;;;;24.25;19.00;;;;;9.35;56.75;101787.00;5116615;27;44965;-62
2023/03/05 01:59:12;;;;;;;;;23.00;19.00;;;;;9.31;56.39;101777.03;5115093;27;45185;-62
2023/03/05 02:01:41;;;;;;;;;23.50;17.25;;;;;9.30;56.17;101782.28;5113043;27;45468;-62
2023/03/05 02:04:09;;;;;;;;;22.25;19.00;;;;;9.33;57.04;101777.09;5113091;27;45071;-62
2023/03/05 02:06:36;;;;;;;;;23.50;19.50;;;;;9.31;56.66;101768.13;5114036;27;45219;-61
2023/03/05 02:09:01;;;;;;;;;19.00;18.00;;;;;9.30;57.17;101766.28;5113340;27;45191;-62
2023/03/05 02:11:26;;;;;;;;;20.75;18.00;;;;;9.28;57.04;101766.22;5114473;27;45397;-62
2023/03/05 02:13:52;;;;;;;;;19.50;18.25;;;;;9.24;57.43;101761.59;5101991;27;45133;-61
2023/03/05 02:16:17;;;;;;;;;10.75;6.75;;;;;9.26;57.64;101762.56;5099061;27;45388;-62
2023/03/05 02:18:43;;;;;;;;;22.50;18.25;;;;;9.30;57.59;101761.84;5114117;27;45147;-62
2023/03/05 02:21:09;;;;;;;;;20.00;18.00;;;;;9.18;57.59;101731.94;5113520;27;45707;-61
2023/03/05 02:23:36;;;;;;;;;26.25;19.25;;;;;9.22;57.74;101737.50;5114069;27;45343;-61
2023/03/05 02:26:06;;;;;;;;;21.75;21.75;;;;;9.25;57.84;101746.50;5114118;27;45267;-61
2023/03/05 02:28:52;;;;;;;;;24.75;23.50;;;;;9.29;57.77;101752.06;5120609;27;45246;-63
2023/03/05 02:31:21;;;;;;;;;25.75;20.25;;;;;9.23;56.97;101736.66;5124943;27;45739;-63
2023/03/05 02:33:46;;;;;;;;;25.50;19.75;;;;;9.27;57.03;101731.47;5109763;27;45376;-62
2023/03/05 02:36:12;;;;;;;;;37.25;27.50;;;;;9.37;57.87;101739.06;5113728;27;45486;-62
2023/03/05 02:38:39;;;;;;;;;21.25;17.25;;;;;9.40;57.58;101737.47;5121902;27;44973;-61
2023/03/05 02:41:04;;;;;;;;;22.75;20.50;;;;;9.32;57.35;101720.19;5124121;27;45248;-62
2023/03/05 02:43:30;;;;;;;;;22.75;19.75;;;;;9.30;57.17;101724.53;5116785;27;45060;-61
2023/03/05 02:45:55;;;;;;;;;28.25;21.50;;;;;9.29;58.25;101728.06;5115511;27;44935;-65
2023/03/05 02:48:20;;;;;;;;;24.00;19.50;;;;;9.25;57.88;101722.50;5119220;27;45165;-66
2023/03/05 02:50:46;;;;;;;;;22.50;18.25;;;;;9.20;58.47;101727.59;5121587;27;45605;-63
2023/03/05 02:53:12;;;;;;;;;20.50;18.50;;;;;9.20;58.87;101735.59;5112015;27;45165;-63
2023/03/05 02:55:37;;;;;;;;;25.00;19.50;;;;;9.18;58.78;101718.63;5112088;27;45207;-62
2023/03/05 02:58:02;;;;;;;;;19.25;14.00;;;;;9.20;58.15;101707.16;5113073;27;45241;-63
2023/03/05 03:00:28;;;;;;;;;22.50;16.25;;;;;9.23;58.38;101704.66;5112851;27;45522;-64
2023/03/05 03:02:55;;;;;;;;;20.75;16.75;;;;;9.25;58.27;101706.50;5115917;27;45217;-63
2023/03/05 03:05:20;;;;;;;;;25.25;23.25;;;;;9.25;57.81;101704.72;5113413;27;44938;-62
2023/03/05 03:07:46;;;;;;;;;22.00;19.75;;;;;9.19;58.30;101700.03;5118686;27;45123;-61
2023/03/05 03:10:12;;;;;;;;;24.00;20.50;;;;;9.20;58.16;101704.50;5112467;27;45392;-62
2023/03/05 03:12:38;;;;;;;;;29.50;23.50;;;;;9.20;58.44;101701.84;5103966;27;45001;-63
2023/03/05 03:15:04;;;;;;;;;23.00;20.00;;;;;9.17;58.29;101699.06;5112712;27;45626;-62
2023/03/05 03:17:30;;;;;;;;;25.50;21.00;;;;;9.11;58.33;101688.09;5123976;27;45398;-62
2023/03/05 03:19:55;;;;;;;;;19.75;14.50;;;;;9.17;58.41;101690.13;5127981;27;45395;-61
2023/03/05 03:22:21;;;;;;;;;24.00;19.75;;;;;9.18;59.19;101689.28;5118278;27;45146;-61
2023/03/05 03:24:46;;;;;;;;;21.25;18.75;;;;;9.19;58.48;101685.81;5126256;27;44878;-62
2023/03/05 03:27:11;;;;;;;;;22.75;19.25;;;;;9.16;58.99;101683.88;5113403;27;45250;-62
2023/03/05 03:29:37;;;;;;;;;21.00;20.00;;;;;9.20;59.27;101690.28;5112835;27;45771;-61
2023/03/05 03:32:03;;;;;;;;;21.50;20.25;;;;;9.04;58.73;101661.97;5113002;27;46209;-64
2023/03/05 03:34:29;;;;;;;;;21.25;17.75;;;;;9.17;58.34;101679.47;5113076;27;45173;-64
2023/03/05 03:36:54;;;;;;;;;25.00;20.25;;;;;9.09;58.92;101662.19;5115660;27;45099;-62
2023/03/05 03:39:21;;;;;;;;;19.50;17.25;;;;;9.18;58.97;101681.31;5100544;27;45989;-67
2023/03/05 03:41:49;;;;;;;;;25.00;19.00;;;;;9.18;58.85;101671.53;5115031;27;45159;-62
2023/03/05 03:44:17;;;;;;;;;13.25;10.50;;;;;9.19;58.80;101675.13;5113230;27;44968;-64
2023/03/05 03:46:44;;;;;;;;;18.75;16.50;;;;;9.18;58.95;101670.63;5116415;27;45316;-61
2023/03/05 03:49:18;;;;;;;;;21.75;18.00;;;;;9.19;58.30;101665.38;5124215;27;45221;-64
2023/03/05 03:51:44;;;;;;;;;22.50;16.75;;;;;9.08;59.24;101641.72;5122115;27;45159;-64
2023/03/05 03:54:10;;;;;;;;;25.25;19.25;;;;;9.18;58.66;101638.63;5113498;27;45072;-62
2023/03/05 03:56:35;;;;;;;;;27.75;19.00;;;;;9.10;58.54;101648.94;5123982;27;45194;-63
2023/03/05 03:59:00;;;;;;;;;23.00;16.75;;;;;9.04;58.63;101627.31;5112983;27;45706;-62
2023/03/05 04:01:26;;;;;;;;;21.50;19.00;;;;;9.13;58.92;101653.50;5113225;27;45209;-62
2023/03/05 04:03:51;;;;;;;;;15.00;14.25;;;;;9.08;58.94;101645.28;5114333;27;45047;-62
2023/03/05 04:06:17;;;;;;;;;27.00;20.00;;;;;9.13;59.07;101651.75;5121250;27;44980;-63
2023/03/05 04:08:42;;;;;;;;;24.25;16.75;;;;;9.12;59.07;101652.56;5112355;27;45130;-62
2023/03/05 04:11:08;;;;;;;;;20.75;17.00;;;;;9.10;59.08;101648.94;5112798;27;45700;-62
2023/03/05 04:13:33;;;;;;;;;21.50;16.00;;;;;9.07;59.11;101640.78;5113354;27;45249;-62
2023/03/05 04:15:59;;;;;;;;;12.25;10.50;;;;;9.01;59.36;101637.88;5112459;27;45257;-62
2023/03/05 04:18:24;;;;;;;;;23.25;18.00;;;;;8.79;59.38;101596.88;5112240;27;45313;-62
2023/03/05 04:20:49;;;;;;;;;19.50;15.50;;;;;9.05;59.61;101637.16;5119758;27;45142;-62
2023/03/05 04:23:15;;;;;;;;;16.50;15.50;;;;;9.01;58.90;101640.53;5119503;27;45137;-62
2023/03/05 04:25:41;;;;;;;;;28.75;18.50;;;;;9.00;59.79;101644.91;5116749;27;44924;-62
2023/03/05 04:28:06;;;;;;;;;16.50;14.00;;;;;9.01;58.98;101643.19;5118518;27;45519;-61
2023/03/05 04:30:32;;;;;;;;;27.75;13.00;;;;;9.02;59.01;101642.34;5115802;27;45280;-62
2023/03/05 04:32:57;;;;;;;;;20.50;14.50;;;;;8.95;59.20;101641.13;5109396;27;45122;-63
2023/03/05 04:35:23;;;;;;;;;21.50;16.75;;;;;8.85;59.26;101622.88;5121817;27;45373;-62
2023/03/05 04:37:49;;;;;;;;;19.25;16.75;;;;;8.87;59.55;101631.84;5121764;27;45509;-62
2023/03/05 04:40:15;;;;;;;;;18.25;15.00;;;;;8.91;59.21;101640.91;5113172;27;45283;-64
2023/03/05 04:42:40;;;;;;;;;24.75;15.75;;;;;8.89;59.26;101630.16;5119499;27;45289;-62
2023/03/05 04:45:07;;;;;;;;;21.75;14.50;;;;;8.86;59.27;101632.72;5115315;27;45239;-62
2023/03/05 04:47:33;;;;;;;;;16.75;13.25;;;;;8.88;59.93;101630.13;5115179;27;45196;-64
2023/03/05 04:49:58;;;;;;;;;26.50;16.75;;;;;8.92;59.77;101627.66;5116717;27;45188;-62
2023/03/05 04:52:24;;;;;;;;;21.25;18.25;;;;;8.90;60.31;101623.13;5103944;27;45637;-64
2023/03/05 04:54:49;;;;;;;;;23.00;19.75;;;;;8.94;59.02;101630.41;5117746;27;45342;-62
2023/03/05 04:57:15;;;;;;;;;22.75;15.75;;;;;8.93;60.01;101632.16;5121249;27;45529;-62
2023/03/05 04:59:40;;;;;;;;;28.25;18.75;;;;;8.89;60.03;101621.28;5120893;27;45219;-63
2023/03/05 05:02:06;;;;;;;;;17.75;14.75;;;;;8.90;59.97;101617.78;5104295;27;45016;-65
2023/03/05 05:04:32;;;;;;;;;27.00;17.75;;;;;8.84;59.91;101607.72;5123409;27;45228;-63
2023/03/05 05:06:58;;;;;;;;;16.00;13.75;;;;;8.89;59.41;101610.63;5115895;27;45423;-68
2023/03/05 05:09:24;;;;;;;;;17.50;13.75;;;;;8.89;60.21;101603.53;5119731;27;45265;-62
2023/03/05 05:11:49;;;;;;;;;17.00;15.75;;;;;8.93;59.78;101602.84;5117575;27;45331;-65
2023/03/05 05:14:15;;;;;;;;;15.75;14.50;;;;;8.95;59.72;101600.25;5119958;27;45349;-62
2023/03/05 05:16:40;;;;;;;;;20.25;17.25;;;;;8.93;59.88;101601.94;5122673;27;45685;-63
2023/03/05 05:19:07;;;;;;;;;21.75;18.00;;;;;8.91;59.30;101599.19;5116523;27;45190;-62
2023/03/05 05:21:32;;;;;;;;;10.50;10.50;;;;;8.89;60.08;101595.53;5119760;27;45134;-62
2023/03/05 05:23:58;;;;;;;;;15.25;13.25;;;;;8.80;59.56;101588.03;5115729;27;45191;-62
2023/03/05 05:26:23;;;;;;;;;21.50;18.75;;;;;8.78;60.51;101587.06;5114098;27;45563;-62
2023/03/05 05:28:48;;;;;;;;;18.00;13.75;;;;;8.88;59.88;101600.81;5116471;27;45178;-64
2023/03/05 05:31:15;;;;;;;;;15.25;13.75;;;;;8.88;60.21;101592.81;5121130;27;45171;-64
2023/03/05 05:33:41;;;;;;;;;19.75;14.25;;;;;8.79;59.65;101566.63;5125054;27;45066;-62
2023/03/05 05:36:10;;;;;;;;;16.00;15.00;;;;;8.90;60.22;101585.81;5125697;27;45428;-61
2023/03/05 05:38:35;;;;;;;;;19.00;17.50;;;;;8.89;59.63;101591.97;5123237;27;45163;-62
2023/03/05 05:41:03;;;;;;;;;22.50;16.00;;;;;8.87;59.71;101583.00;5117612;27;46674;-61
2023/03/05 05:43:28;;;;;;;;;20.50;17.00;;;;;8.71;60.08;101555.66;5115444;27;45222;-60
2023/03/05 05:45:53;;;;;;;;;11.25;10.00;;;;;8.85;59.47;101580.25;5114416;27;45652;-62
2023/03/05 05:48:19;;;;;;;;;14.00;11.00;;;;;8.82;59.53;101583.66;5114499;27;44923;-61
2023/03/05 05:50:44;;;;;;;;;15.25;13.00;;;;;8.81;59.87;101586.25;5114879;27;44964;-61
2023/03/05 05:53:09;;;;;;;;;13.00;3.50;;;;;8.83;60.39;101589.94;5120282;27;45334;-64
2023/03/05 05:55:39;;;;;;;;;13.50;12.25;;;;;8.60;60.12;101543.56;5114249;27;51691;-61
2023/03/05 05:58:04;;;;;;;;;18.50;16.00;;;;;8.80;60.46;101579.13;5114365;27;45195;-61
2023/03/05 06:00:29;;;;;;;;;14.50;13.00;;;;;8.75;60.24;101562.91;5113675;27;45243;-62
2023/03/05 06:02:55;;;;;;;;;16.25;13.25;;;;;8.81;59.36;101572.94;5114279;27;51049;-65
2023/03/05 06:05:20;;;;;;;;;12.75;12.25;;;;;8.80;59.48;101573.81;5114245;27;45669;-64
2023/03/05 06:07:45;;;;;;;;;17.00;13.75;;;;;8.79;60.00;101571.97;5114655;27;45519;-66
2023/03/05 06:10:11;;;;;;;;;14.00;14.00;;;;;8.75;60.19;101562.91;5115049;27;45089;-62
2023/03/05 06:12:36;;;;;;;;;17.75;13.75;;;;;8.82;60.30;101570.34;5115144;27;45153;-63
2023/03/05 06:15:02;;;;;;;;;17.25;9.75;;;;;8.77;59.86;101555.00;5114334;27;45425;-63
2023/03/05 06:17:27;;;;;;;;;23.50;17.25;;;;;8.85;60.11;101574.94;5115137;27;45077;-67
2023/03/05 06:19:54;;;;;;;;;19.00;14.50;;;;;8.85;59.25;101566.94;5115183;27;45467;-64
2023/03/05 06:22:19;;;;;;;;;14.25;12.00;;;;;8.86;59.44;101571.44;5122233;27;45297;-61
2023/03/05 06:24:44;;;;;;;;;14.50;13.00;;;;;8.84;59.63;101568.69;5103622;27;47660;-63
2023/03/05 06:27:10;;;;;;;;;16.00;13.75;;;;;8.79;60.12;101556.91;5115524;27;45080;-64
2023/03/05 06:29:35;;;;;;;;;16.25;13.50;;;;;8.87;59.07;101564.34;5118334;27;48637;-63
2023/03/05 06:32:00;;;;;;;;;18.00;14.75;;;;;8.84;59.06;101567.75;5114569;27;45372;-65
2023/03/05 06:34:26;;;;;;;;;18.50;14.00;;;;;8.85;59.73;101562.50;5119677;27;47169;-62
2023/03/05 06:36:51;;;;;;;;;14.25;14.25;;;;;8.83;59.71;101561.53;5115493;27;44949;-62
2023/03/05 06:39:17;;;;;;;;;16.75;14.75;;;;;8.84;60.21;101570.41;5121342;27;45139;-62
2023/03/05 06:41:43;;;;;;;;;12.75;10.50;;;;;8.82;59.54;101567.69;5112814;27;45185;-68
2023/03/05 06:44:09;;;;;;;;;16.00;13.00;;;;;8.86;59.81;101574.09;5112466;27;46626;-67
2023/03/05 06:46:38;;;;;;;;;17.00;12.50;;;;;8.79;59.53;101563.97;5113107;27;45201;-64
2023/03/05 06:49:05;;;;;;;;;18.50;13.25;;;;;8.83;59.57;101568.63;5117938;27;45254;-63
2023/03/05 06:51:34;;;;;;;;;19.00;14.00;;;;;8.83;60.07;101564.19;5112678;27;45073;-61
2023/03/05 06:54:03;;;;;;;;;14.00;13.00;;;;;8.82;60.08;101562.34;5113264;27;46295;-62
2023/03/05 06:56:28;;;;;;;;;16.75;15.25;;;;;8.88;59.84;101568.84;5113061;27;45218;-62
2023/03/05 06:58:54;;;;;;;;;11.50;11.50;;;;;8.72;59.94;101540.56;5113500;27;45338;-65
2023/03/05 07:01:20;;;;;;;;;19.75;16.50;;;;;8.87;60.15;101565.25;5117051;27;45139;-62
2023/03/05 07:03:49;;;;;;;;;21.75;17.00;;;;;8.88;59.13;101563.50;5113016;27;45481;-64
2023/03/05 07:06:15;;;;;;;;;20.25;19.25;;;;;8.87;60.31;101564.34;5113458;27;45088;-62
2023/03/05 07:08:40;;;;;;;;;20.00;16.50;;;;;8.82;59.52;101554.38;5112387;27;45084;-63
2023/03/05 07:11:11;;;;;;;;;16.50;13.50;;;;;8.85;59.35;101559.84;5114220;27;44996;-62
2023/03/05 07:13:37;;;;;;;;;22.25;18.00;;;;;8.80;59.89;101547.16;5117003;27;45838;-62
2023/03/05 07:16:07;;;;;;;;;18.25;16.00;;;;;8.88;59.58;101564.41;5117641;27;44978;-62
2023/03/05 07:18:33;;;;;;;;;20.50;19.00;;;;;8.93;58.93;101561.97;5118961;27;45126;-62
2023/03/05 07:21:03;;;;;;;;;17.00;16.75;;;;;8.94;59.97;101570.03;5114256;27;45229;-63
2023/03/05 07:23:29;;;;;;;;;19.25;16.25;;;;;8.97;59.75;101569.25;5119170;27;45719;-61
2023/03/05 07:25:54;;;;;;;;;21.25;16.00;;;;;8.96;59.58;101556.75;5118729;27;45128;-61
2023/03/05 07:28:20;;;;;;;;;18.00;17.50;;;;;8.98;59.22;101555.09;5122919;27;45194;-61
2023/03/05 07:30:54;;;;;;;;;20.75;16.75;;;;;8.95;58.95;101563.84;5121108;27;45110;-64
2023/03/05 07:33:20;;;;;;;;;25.50;20.50;;;;;8.99;59.39;101568.50;5127186;27;45218;-61
2023/03/05 07:35:45;;;;;;;;;22.75;20.00;;;;;8.97;59.87;101570.16;5118835;27;45130;-62
2023/03/05 07:38:10;;;;;;;;;18.00;12.50;;;;;9.00;59.64;101566.72;5118079;27;49383;-62
2023/03/05 07:40:36;;;;;;;;;23.25;19.50;;;;;8.99;59.37;101565.81;5122583;27;45331;-62
2023/03/05 07:43:01;;;;;;;;;21.00;15.00;;;;;8.93;59.84;101554.88;5122315;27;45550;-61
2023/03/05 07:45:26;;;;;;;;;22.50;17.75;;;;;8.99;59.25;101565.81;5113764;27;45147;-62
2023/03/05 07:47:52;;;;;;;;;16.50;13.00;;;;;9.01;58.98;101566.78;5120151;27;50324;-62
2023/03/05 07:50:17;;;;;;;;;17.50;14.75;;;;;8.93;59.42;101564.63;5091798;27;45219;-61
2023/03/05 07:52:42;;;;;;;;;16.75;12.25;;;;;8.98;59.69;101576.41;5113066;27;45820;-65
2023/03/05 07:55:08;;;;;;;;;14.00;11.25;;;;;9.00;59.33;101567.63;5110010;27;45428;-61
2023/03/05 07:57:36;;;;;;;;;18.50;16.50;;;;;9.00;59.42;101561.41;5120137;27;45293;-61
2023/03/05 08:00:03;;;;;;;;;19.75;17.25;;;;;9.06;59.26;101566.06;5114870;27;45279;-62
2023/03/05 08:02:29;;;;;;;;;16.50;15.75;;;;;9.03;59.62;101565.09;5100554;27;46801;-62
2023/03/05 08:04:54;;;;;;;;;27.50;19.00;;;;;9.03;58.95;101562.44;5114246;27;45330;-62
2023/03/05 08:07:19;;;;;;;;;20.00;15.25;;;;;9.06;59.15;101568.75;5112355;27;45088;-63
2023/03/05 08:09:48;;;;;;;;;17.75;17.25;;;;;9.04;59.53;101552.69;5121835;27;45490;-65
2023/03/05 08:12:13;;;;;;;;;20.50;18.25;;;;;9.10;59.18;101552.97;5117484;27;45919;-62
2023/03/05 08:14:38;;;;;;;;;22.00;16.25;;;;;9.16;58.90;101547.03;5121055;27;51573;-62
2023/03/05 08:17:05;;;;;;;;;20.50;17.25;;;;;9.26;58.89;101551.00;5114845;27;45113;-62
2023/03/05 08:19:31;;;;;;;;;19.50;18.25;;;;;9.28;58.64;101552.88;5113675;27;45207;-63
2023/03/05 08:21:57;;;;;;;;;16.00;13.00;;;;;9.31;58.55;101553.03;5110533;27;45971;-64
2023/03/05 08:24:28;;;;;;;;;21.25;15.75;;;;;9.33;58.52;101548.66;5114182;27;51393;-62
2023/03/05 08:26:55;;;;;;;;;15.25;15.25;;;;;9.33;58.08;101545.09;5116545;27;45221;-65
2023/03/05 08:29:20;;;;;;;;;18.75;16.50;;;;;9.35;57.96;101548.72;5115968;27;45164;-63
2023/03/05 08:31:46;;;;;;;;;20.25;16.00;;;;;9.36;58.13;101547.91;5118146;27;45096;-63
2023/03/05 08:34:12;;;;;;;;;23.25;17.50;;;;;9.34;58.13;101539.81;5116889;27;45085;-62
2023/03/05 08:36:37;;;;;;;;;18.25;15.50;;;;;9.42;57.49;101542.84;5114536;27;45455;-61
2023/03/05 08:39:05;;;;;;;;;20.50;20.50;;;;;9.45;58.02;101544.72;5114576;27;45057;-61
2023/03/05 08:41:31;;;;;;;;;23.25;19.75;;;;;9.48;57.72;101542.19;5102616;27;47204;-60
2023/03/05 08:43:56;;;;;;;;;21.25;18.25;;;;;9.43;57.58;101538.41;5110894;27;45031;-62
2023/03/05 08:46:21;;;;;;;;;18.75;18.25;;;;;9.33;57.71;101513.09;5115977;27;45308;-60
2023/03/05 08:48:49;;;;;;;;;20.25;17.00;;;;;9.49;57.47;101534.25;5112714;27;44980;-62
2023/03/05 08:51:18;;;;;;;;;16.00;15.25;;;;;9.60;57.10;101537.38;5111393;27;45518;-62
2023/03/05 08:53:44;;;;;;;;;21.75;20.00;;;;;9.63;56.97;101529.50;5111725;27;45059;-62
2023/03/05 08:56:10;;;;;;;;;25.50;16.75;;;;;9.62;56.18;101532.09;5099894;27;45142;-61
2023/03/05 08:58:36;;;;;;;;;19.50;16.25;;;;;9.64;56.48;101538.44;5112632;27;45210;-62
2023/03/05 09:01:02;;;;;;;;;22.75;19.25;;;;;9.71;56.73;101529.84;5111199;27;46190;-61
2023/03/05 09:03:27;;;;;;;;;20.50;15.00;;;;;9.76;56.37;101525.59;5116060;27;45356;-61
2023/03/05 09:05:52;;;;;;;;;20.25;13.75;;;;;9.76;56.04;101531.84;5117419;27;50002;-62
2023/03/05 09:08:18;;;;;;;;;17.25;15.00;;;;;9.65;56.39;101510.88;5116633;27;45250;-62
2023/03/05 09:10:45;;;;;;;;;15.75;14.75;;;;;9.76;56.33;101522.94;5118737;27;45513;-64
2023/03/05 09:13:10;;;;;;;;;17.50;15.00;;;;;9.72;56.81;101515.66;5120503;27;45080;-61
2023/03/05 09:15:36;;;;;;;;;21.25;16.00;;;;;9.84;56.35;101529.50;5117120;27;45490;-62
2023/03/05 09:18:02;;;;;;;;;18.75;18.00;;;;;9.78;56.22;101519.50;5125498;27;45216;-61
2023/03/05 09:20:27;;;;;;;;;21.25;18.00;;;;;9.81;56.15;101531.13;5104149;27;47027;-61
2023/03/05 09:22:53;;;;;;;;;24.25;20.75;;;;;9.88;56.74;101525.19;5115221;27;44917;-64
2023/03/05 09:25:18;;;;;;;;;29.25;15.25;;;;;9.92;55.92;101528.06;5115630;27;44873;-63
2023/03/05 09:27:44;;;;;;;;;16.50;14.75;;;;;9.90;55.74;101524.44;5116359;27;45188;-62
2023/03/05 09:30:11;;;;;;;;;14.75;13.00;;;;;9.88;55.63;101515.47;5105386;27;46131;-63
2023/03/05 09:32:37;;;;;;;;;13.25;13.25;;;;;9.95;55.63;101520.19;5114784;27;45525;-64
2023/03/05 09:35:02;;;;;;;;;14.25;14.00;;;;;10.00;55.36;101519.44;5113893;27;45641;-64
2023/03/05 09:37:28;;;;;;;;;16.50;13.00;;;;;9.96;54.89;101502.41;5123844;27;45385;-64
2023/03/05 09:39:54;;;;;;;;;17.75;15.50;;;;;10.06;54.75;101511.69;5120143;27;45242;-63
2023/03/05 09:42:40;;;;;;;;;15.00;11.75;;;;;10.13;54.14;101503.09;5117765;27;45155;-62
2023/03/05 09:45:21;;;;;;;;;17.75;15.75;;;;;10.15;54.05;101499.63;5119812;27;45093;-63
2023/03/05 09:48:12;;;;;;;;;14.25;12.75;;;;;10.23;53.24;101505.28;5122084;27;45211;-64
2023/03/05 09:50:49;;;;;;;;;12.75;12.00;;;;;10.25;53.37;101494.66;5103212;27;47162;-64
2023/03/05 09:53:35;;;;;;;;;12.50;10.75;;;;;10.22;53.58;101495.44;5119764;27;45266;-64
2023/03/05 09:56:09;;;;;;;;;14.00;12.75;;;;;10.30;53.11;101487.75;5116615;27;45359;-64
2023/03/05 09:58:41;;;;;;;;;12.50;10.25;;;;;10.32;53.13;101480.72;5124241;27;45215;-64
2023/03/05 10:01:16;;;;;;;;;10.00;10.00;;;;;10.06;52.40;101427.16;5123000;27;46237;-65
2023/03/05 10:03:48;;;;;;;;;15.00;9.25;;;;;10.39;52.80;101474.75;5119008;27;45100;-64
2023/03/05 10:06:27;;;;;;;;;16.50;13.25;;;;;10.39;52.49;101464.09;5120081;27;45107;-64
2023/03/05 10:08:55;;;;;;;;;13.50;11.25;;;;;10.43;52.08;101470.47;5113670;27;45240;-64
2023/03/05 10:11:35;;;;;;;;;17.50;14.25;;;;;10.46;52.57;101465.22;5121501;27;45091;-66
2023/03/05 10:14:01;;;;;;;;;16.75;12.25;;;;;10.47;51.92;101470.63;5106272;27;45544;-65
2023/03/05 10:16:39;;;;;;;;;17.00;14.50;;;;;10.45;52.64;101467.00;5122189;27;44978;-63
2023/03/05 10:19:18;;;;;;;;;13.50;11.25;;;;;10.41;52.11;101461.47;5119014;27;45500;-64
2023/03/05 10:22:09;;;;;;;;;9.25;8.25;;;;;10.38;52.20;101448.94;5122166;27;45477;-64
2023/03/05 10:24:55;;;;;;;;;14.25;12.75;;;;;10.43;52.32;101460.69;5114667;27;45428;-66
2023/03/05 10:27:31;;;;;;;;;15.00;13.25;;;;;10.32;51.76;101440.66;5108292;27;45443;-64
2023/03/05 10:30:12;;;;;;;;;14.00;11.00;;;;;10.42;51.59;101460.63;5118155;27;45238;-64
2023/03/05 10:33:10;;;;;;;;;13.75;13.75;;;;;10.41;51.71;101459.72;5118565;27;45969;-64
2023/03/05 10:36:06;;;;;;;;;12.75;12.00;;;;;10.42;52.00;101445.50;5113052;27;45116;-64
2023/03/05 10:39:03;;;;;;;;;17.25;12.00;;;;;10.41;52.23;101443.72;5113272;27;45328;-62
2023/03/05 10:41:43;;;;;;;;;10.25;9.75;;;;;10.37;50.77;101439.09;5114063;27;45437;-65
2023/03/05 10:44:20;;;;;;;;;23.00;16.00;;;;;10.39;51.28;101436.47;5112092;27;46347;-67
2023/03/05 10:46:47;;;;;;;;;15.50;11.25;;;;;10.41;50.86;101440.09;5113219;27;45177;-66
2023/03/05 10:49:25;;;;;;;;;11.75;8.75;;;;;10.36;51.37;101426.59;5119773;27;45583;-71
2023/03/05 10:51:58;;;;;;;;;8.00;8.00;;;;;10.45;50.99;101436.72;5121106;27;45118;-63
2023/03/05 10:54:28;;;;;;;;;14.75;8.25;;;;;10.45;50.53;101426.03;5120485;27;45314;-64
2023/03/05 10:57:15;;;;;;;;;15.00;11.50;;;;;10.45;51.07;101436.72;5120449;27;45008;-62
2023/03/05 10:59:46;;;;;;;;;14.25;12.00;;;;;10.40;50.91;101428.53;5117573;27;45494;-61
2023/03/05 11:02:11;;;;;;;;;9.75;8.75;;;;;10.25;51.01;101409.22;5101015;27;45162;-66
2023/03/05 11:04:39;;;;;;;;;11.25;8.00;;;;;10.41;50.92;101432.09;5119972;27;45719;-65
2023/03/05 11:07:24;;;;;;;;;11.50;7.00;;;;;10.42;50.50;101423.22;5117723;27;45135;-69
2023/03/05 11:10:22;;;;;;;;;7.75;6.75;;;;;10.42;50.28;101418.78;5117255;27;46543;-65
2023/03/05 11:12:48;;;;;;;;;11.00;7.00;;;;;10.34;49.91;101425.59;5117411;27;45510;-65
2023/03/05 11:15:13;;;;;;;;;9.75;7.75;;;;;10.32;50.36;101414.84;5109911;27;46988;-65
2023/03/05 11:18:20;;;;;;;;;15.75;8.75;;;;;10.28;50.58;101415.56;5112710;27;45959;-67
2023/03/05 11:20:45;;;;;;;;;15.00;11.00;;;;;10.34;50.62;101422.94;5118027;27;45119;-65